Airfield :
LOGIN :

Register | Disclaimer

   EN    FR    IT 

 










Legend :    VFR   Marginal VFR   IFR   Intensive IFR   Very Intensive IFR
Visi :
Ceiling :
>= 8 km
>= 3000ft
5 to 8 km
1000 to 3000 ft
1500m to 5 km
500 to 1000 ft
800 to 1500m
200 to 500 ft
< 800m
< 200 ft
Symbols :   Thunderstorms  Fog  Heavy snow  Heavy precipitations  Wind > 20 kt
SIGMETs :     Misc.  Thunderstorms  Icing  Turbulence  Mountain Waves  Volcanic Ashes






- Airport Elevation : 65 ft
- IATA code : PIK


EGPK - Glasgow Prestwick

CURRENT METAR :
  • 071550Z 24010KT 9999 FEW035 10/02 Q1014

EXPIRED METARs :
  • 071520Z 24008KT 150V290 9999 FEW035 10/01 Q1014
  • 071450Z 26005KT 210V310 9999 FEW038 10/01 Q1014
  • 071420Z 26007KT 230V290 9999 FEW038 10/01 Q1014
  • 071350Z 26008KT 220V320 9999 FEW035 09/01 Q1014
  • 071320Z AUTO 26009KT 240V300 9999 NCD 09/01 Q1014

TAF TAF EGPK
Valid from the 07 at 12:00 until the 08 at 12:00 UTC


071100Z 0712/0812 28010KT 9999 FEW035
PROB30
TEMPO 0712/0714 8000 -SHRA
BECMG 0718/0721 11007KT
BECMG 0808/0812 11018G28KT
TEMPO 0808/0812 6000 RA BKN014



MET'MAP, your aeronautical weather chart ! - Copyright ORBIFLY December 2007 - Disclaimer

ORBIFLY MET'MAP TEAM :

Programming & Development : Alexandra Zaïnal
Concept & original design : Baudouin d'Aumeries
Assistance for programming : Marc-Olivier Méhu
Technical & hardware support : Manuel Goepfert

Contact : metmap@orbifly.com




SOURCES & CREDITS :

   NOAA